DO3HUM-5 Weather Reports


Display with metric or nautical units.
time (UTC)temp
F
wind
direction
speed
MPH
gust
MPH
rain 1hr
in
rain 24hr
in
rain mn
in
humidity
%
barometer
mb
20190917165057 59 288 2.0 4.0 0.00 0.01 0.01 66 1011.8
20190917164016 59 243 0.0 2.0 0.00 0.01 0.01 66 1011.6
20190917163113 59 171 1.0 5.0 0.00 0.01 0.01 67 1011.7
20190917162109 59 225 0.0 2.0 0.00 0.01 0.01 68 1011.6
20190917161106 59 270 2.0 5.0 0.00 0.01 0.01 70 1011.6
20190917160102 59 248 0.0 4.0 0.00 0.01 0.01 70 1011.5
20190917155058 59 135 1.0 3.0 0.01 0.02 0.01 73 1011.5
20190917154055 59 206 0.0 3.0 0.01 0.02 0.01 78 1011.5
20190917153052 59 293 0.0 3.0 0.01 0.02 0.01 81 1011.3
20190917152048 58 225 0.0 4.0 0.01 0.02 0.01 83 1011.3
20190917151045 57 270 0.0 3.0 0.01 0.02 0.01 83 1011.4
20190917150042 57 0.0 2.0 0.01 0.02 0.01 83 1011.3
20190917145038 57 30 0.0 3.0 0.00 0.01 0.00 83 1011.2
20190917144035 57 139 0.0 3.0 0.00 0.01 0.00 83 1011.3
20190917143032 57 49 1.0 6.0 0.00 0.01 0.00 84 1011.3
20190917142027 57 113 0.0 3.0 0.00 0.02 0.00 81 1011.4
20190917141024 60 64 1.0 2.0 0.00 0.02 0.00 70 1011.3
20190917140020 63 196 3.0 6.0 0.00 0.02 0.00 57 1011.5
20190917135017 63 239 3.0 8.0 0.00 0.02 0.00 54 1010.5
20190917134114 63 229 3.0 8.0 0.00 0.02 0.00 53 1010.5
20190917133110 63 251 5.0 11.0 0.00 0.02 0.00 52 1010.6
20190917132107 64 265 4.0 11.0 0.00 0.04 0.00 51 1010.5
20190917131103 65 272 4.0 9.0 0.00 0.04 0.00 52 1010.6
20190917130100 65 282 4.0 8.0 0.00 0.04 0.00 52 1010.8
20190917125056 66 304 5.0 11.0 0.00 0.04 0.00 49 1010.8
20190917124052 66 233 5.0 11.0 0.00 0.04 0.00 51 1010.9
20190917123049 65 276 4.0 8.0 0.00 0.04 0.00 52 1011.0
20190917122045 64 299 4.0 11.0 0.00 0.04 0.00 52 1011.1
20190917121042 66 275 4.0 9.0 0.00 0.04 0.00 52 1011.1
20190917120039 66 244 3.0 7.0 0.00 0.04 0.00 52 1011.2
20190917115035 65 258 5.0 8.0 0.00 0.04 0.00 52 1011.3
20190917114031 66 270 4.0 7.0 0.00 0.04 0.00 50 1011.5
20190917113028 69 257 4.0 10.0 0.00 0.04 0.00 44 1011.5
20190917112024 68 278 5.0 12.0 0.00 0.04 0.00 45 1011.6
20190917111021 68 276 5.0 9.0 0.00 0.04 0.00 48 1011.7
20190917110018 66 306 5.0 10.0 0.00 0.04 0.00 52 1011.9
20190917105114 64 286 3.0 7.0 0.00 0.04 0.00 52 1012.1
20190917104111 65 269 3.0 6.0 0.00 0.04 0.00 52 1012.2
20190917103108 67 252 3.0 6.0 0.00 0.04 0.00 50 1012.3
20190917102104 65 221 4.0 9.0 0.00 0.04 0.00 53 1012.5
20190917101101 66 225 2.0 7.0 0.00 0.04 0.00 51 1012.4
20190917100057 66 264 3.0 7.0 0.00 0.04 0.00 52 1012.4
20190917095053 66 287 3.0 5.0 0.00 0.04 0.00 52 1012.5
20190917094050 67 267 4.0 10.0 0.00 0.04 0.00 51 1012.5
20190917093046 66 283 4.0 10.0 0.00 0.04 0.00 53 1012.4
20190917092043 66 278 5.0 9.0 0.00 0.04 0.00 55 1012.5
20190917091040 66 301 2.0 6.0 0.00 0.05 0.00 54 1012.7
20190917090036 66 270 4.0 7.0 0.00 0.05 0.00 55 1012.6
20190917085033 65 245 3.0 5.0 0.00 0.05 0.00 58 1012.6
20190917084029 63 261 3.0 5.0 0.00 0.05 0.00 61 1012.8
20190917083026 63 262 3.0 6.0 0.00 0.05 0.00 62 1013.0
20190917082023 63 274 3.0 8.0 0.00 0.05 0.00 63 1013.0
20190917081019 62 287 2.0 10.0 0.00 0.05 0.00 68 1013.1
20190917080016 61 259 3.0 7.0 0.00 0.05 0.00 70 1013.0
20190917075112 61 245 3.0 7.0 0.00 0.05 0.00 70 1013.0
20190917074110 62 272 2.0 4.0 0.00 0.05 0.00 72 1013.0